createdAt,value
2023-03-28T00:02:05.426Z,99502.56
2023-03-28T00:04:32.066Z,99506.47
2023-03-28T00:06:58.910Z,99515.91
2023-03-28T00:09:25.859Z,99513.97
2023-03-28T00:11:52.643Z,99523.91
2023-03-28T00:14:19.211Z,99526.56
2023-03-28T00:16:45.871Z,99517.72
2023-03-28T00:19:16.128Z,99526.44
2023-03-28T00:21:48.850Z,99529.22
2023-03-28T00:24:18.860Z,99541.25
2023-03-28T00:26:45.706Z,99549.25
2023-03-28T00:29:16.681Z,99548.72
2023-03-28T00:31:43.314Z,99552.44
2023-03-28T00:34:09.967Z,99550.47
2023-03-28T00:36:39.753Z,99566.94
2023-03-28T00:39:10.332Z,99565.66
2023-03-28T00:41:40.333Z,99560.66
2023-03-28T00:44:41.227Z,99563.66
2023-03-28T00:47:40.891Z,99556.22
2023-03-28T00:50:13.526Z,99571.03
2023-03-28T00:52:49.789Z,99578.03
2023-03-28T00:55:44.567Z,99578.53
2023-03-28T00:58:15.556Z,99586.16
2023-03-28T01:00:42.391Z,99586.03
2023-03-28T01:03:13.651Z,99581.94
2023-03-28T01:05:41.483Z,99581.22
2023-03-28T01:08:20.648Z,99586.00
2023-03-28T01:10:48.489Z,99586.75
2023-03-28T01:13:19.145Z,99594.72
2023-03-28T01:15:50.123Z,99598.47
2023-03-28T01:18:18.758Z,99601.97
2023-03-28T01:21:06.339Z,99603.50
2023-03-28T01:23:45.901Z,99603.97
2023-03-28T01:26:40.667Z,99608.75
2023-03-28T01:29:31.305Z,99609.31
2023-03-28T01:32:33.290Z,99602.94
2023-03-28T01:35:09.145Z,99600.22
2023-03-28T01:37:51.293Z,99614.84
2023-03-28T01:40:21.256Z,99608.25
2023-03-28T01:42:54.120Z,99613.84
2023-03-28T01:45:38.700Z,99626.00
2023-03-28T01:48:09.209Z,99625.13
2023-03-28T01:50:46.678Z,99628.66
2023-03-28T01:53:13.168Z,99634.28
2023-03-28T01:55:44.496Z,99629.13
2023-03-28T01:58:17.521Z,99633.81
2023-03-28T02:00:46.170Z,99639.53
2023-03-28T02:03:25.247Z,99634.59
2023-03-28T02:05:55.587Z,99645.19
2023-03-28T02:08:25.902Z,99634.44
2023-03-28T02:10:55.675Z,99642.37
2023-03-28T02:13:28.618Z,99641.81
2023-03-28T02:15:59.508Z,99644.41
2023-03-28T02:18:34.230Z,99642.53
2023-03-28T02:21:07.455Z,99643.28
2023-03-28T02:23:42.562Z,99642.84
2023-03-28T02:26:09.723Z,99646.81
2023-03-28T02:28:37.563Z,99655.12
2023-03-28T02:31:07.179Z,99655.53
2023-03-28T02:33:46.898Z,99660.97
2023-03-28T02:36:39.897Z,99663.28
2023-03-28T02:39:18.667Z,99662.72
2023-03-28T02:42:06.760Z,99658.69
2023-03-28T02:45:07.791Z,99673.56
2023-03-28T02:47:39.252Z,99674.75
2023-03-28T02:50:53.569Z,99679.16
2023-03-28T02:53:49.564Z,99680.41
2023-03-28T02:56:53.008Z,99700.03
2023-03-28T02:59:27.663Z,99699.22
2023-03-28T03:01:54.485Z,99708.50
2023-03-28T03:04:21.619Z,99714.88
2023-03-28T03:06:50.928Z,99723.12
2023-03-28T03:09:18.589Z,99717.44
2023-03-28T03:11:45.194Z,99730.50
2023-03-28T03:14:12.542Z,99731.72
2023-03-28T03:16:39.147Z,99740.25
2023-03-28T03:19:05.731Z,99742.16
2023-03-28T03:21:35.212Z,99753.22
2023-03-28T03:24:03.214Z,99746.19
2023-03-28T03:26:29.813Z,99756.22
2023-03-28T03:28:57.331Z,99755.16
2023-03-28T03:31:24.157Z,99751.22
2023-03-28T03:33:50.867Z,99755.59
2023-03-28T03:36:18.878Z,99754.47
2023-03-28T03:38:45.427Z,99757.09
2023-03-28T03:41:12.034Z,99768.84
2023-03-28T03:43:38.634Z,99767.16
2023-03-28T03:46:05.447Z,99770.16
2023-03-28T03:48:32.083Z,99780.78
2023-03-28T03:50:58.760Z,99774.72
2023-03-28T03:53:25.863Z,99776.06
2023-03-28T03:55:52.519Z,99777.63
2023-03-28T03:58:20.646Z,99781.44
2023-03-28T04:00:49.006Z,99783.09
2023-03-28T04:03:23.909Z,99788.44
2023-03-28T04:06:05.251Z,99795.03
2023-03-28T04:08:32.613Z,99798.19
2023-03-28T04:10:59.242Z,99797.69
2023-03-28T04:13:25.867Z,99804.63
2023-03-28T04:15:52.445Z,99810.53
2023-03-28T04:18:20.641Z,99809.75
2023-03-28T04:20:55.220Z,99818.34
2023-03-28T04:23:25.813Z,99816.50
2023-03-28T04:25:59.143Z,99817.53
2023-03-28T04:28:27.909Z,99815.22
2023-03-28T04:30:58.309Z,99818.66
2023-03-28T04:33:26.213Z,99820.28
2023-03-28T04:36:00.454Z,99815.91
2023-03-28T04:38:32.358Z,99828.66
2023-03-28T04:40:59.429Z,99831.25
2023-03-28T04:43:27.123Z,99843.16
2023-03-28T04:45:54.230Z,99836.59
2023-03-28T04:48:22.265Z,99844.00
2023-03-28T04:50:49.266Z,99847.56
2023-03-28T04:53:16.276Z,99843.47
2023-03-28T04:55:44.196Z,99843.53
2023-03-28T04:58:10.901Z,99857.94
2023-03-28T05:00:39.418Z,99845.66
2023-03-28T05:03:12.993Z,99851.38
2023-03-28T05:05:41.386Z,99844.69
2023-03-28T05:08:08.537Z,99841.44
2023-03-28T05:10:35.263Z,99858.72
2023-03-28T05:13:02.005Z,99851.09
2023-03-28T05:15:28.612Z,99849.69
2023-03-28T05:17:55.334Z,99866.22
2023-03-28T05:20:22.376Z,99859.94
2023-03-28T05:22:48.928Z,99865.53
2023-03-28T05:25:15.811Z,99864.25
2023-03-28T05:27:42.440Z,99862.75
2023-03-28T05:30:10.368Z,99870.50
2023-03-28T05:32:40.444Z,99880.91
2023-03-28T05:35:09.327Z,99885.34
2023-03-28T05:37:37.525Z,99888.25
2023-03-28T05:40:09.856Z,99889.88
2023-03-28T05:42:37.026Z,99894.16
2023-03-28T05:45:08.126Z,99906.84
2023-03-28T05:47:35.914Z,99906.47
2023-03-28T05:50:08.972Z,99911.88
2023-03-28T05:52:35.594Z,99912.63
2023-03-28T05:55:02.263Z,99911.63
2023-03-28T05:57:28.816Z,99926.38
2023-03-28T06:00:01.076Z,99921.00
2023-03-28T06:02:29.506Z,99921.31
2023-03-28T06:04:56.510Z,99934.72
2023-03-28T06:07:35.117Z,99929.53
2023-03-28T06:10:07.077Z,99937.06
2023-03-28T06:12:34.041Z,99939.72
2023-03-28T06:15:00.628Z,99950.03
2023-03-28T06:17:27.224Z,99948.53
2023-03-28T06:19:53.986Z,99940.13
2023-03-28T06:22:21.199Z,99952.59
2023-03-28T06:24:50.536Z,99950.19
2023-03-28T06:27:17.080Z,99956.09
2023-03-28T06:29:43.653Z,99966.78
2023-03-28T06:32:12.572Z,99964.56
2023-03-28T06:34:39.184Z,99966.91
2023-03-28T06:37:05.939Z,99982.88
2023-03-28T06:39:32.560Z,99984.78
2023-03-28T06:41:59.909Z,99982.75
2023-03-28T06:44:26.830Z,99977.47
2023-03-28T06:46:53.906Z,99992.25
2023-03-28T06:49:20.504Z,99991.19
2023-03-28T06:51:47.088Z,99993.78
2023-03-28T06:54:13.628Z,100007.84
2023-03-28T06:56:40.597Z,100007.25
2023-03-28T06:59:07.398Z,100007.50
2023-03-28T07:01:34.006Z,100022.31
2023-03-28T07:04:02.203Z,100022.22
2023-03-28T07:06:29.131Z,100028.31
2023-03-28T07:08:58.372Z,100026.78
2023-03-28T07:11:24.966Z,100038.38
2023-03-28T07:13:51.566Z,100026.28
2023-03-28T07:16:18.177Z,100036.78
2023-03-28T07:18:45.129Z,100046.25
2023-03-28T07:21:14.036Z,100042.31
2023-03-28T07:23:40.907Z,100050.59
2023-03-28T07:26:09.421Z,100049.28
2023-03-28T07:28:36.281Z,100052.94
2023-03-28T07:31:04.761Z,100039.59
2023-03-28T07:33:37.769Z,100039.53
2023-03-28T07:36:23.052Z,100044.31
2023-03-28T07:38:49.968Z,100055.50
2023-03-28T07:41:17.545Z,100055.59
2023-03-28T07:43:44.620Z,100051.38
2023-03-28T07:49:41.193Z,100073.88
2023-03-28T07:52:14.291Z,100061.94
2023-03-28T07:54:40.881Z,100078.28
2023-03-28T07:57:07.724Z,100070.38
2023-03-28T07:59:34.374Z,100064.63
2023-03-28T08:02:01.087Z,100067.59
2023-03-28T08:04:27.826Z,100064.19
2023-03-28T08:06:54.446Z,100066.25
2023-03-28T08:09:21.197Z,100056.66
2023-03-28T08:11:48.576Z,100068.84
2023-03-28T08:14:17.561Z,100056.25
2023-03-28T08:16:45.393Z,100046.47
2023-03-28T08:19:12.309Z,100059.06
2023-03-28T08:21:39.246Z,100050.53
2023-03-28T08:24:07.756Z,100061.03
2023-03-28T08:26:34.737Z,100047.66
2023-03-28T08:29:01.282Z,100055.84
2023-03-28T08:31:29.080Z,100056.28
2023-03-28T08:33:56.402Z,100056.63
2023-03-28T08:36:25.338Z,100046.97
2023-03-28T08:39:00.569Z,100050.13
2023-03-28T08:42:06.735Z,100044.88
2023-03-28T08:44:48.418Z,100062.66
2023-03-28T08:47:22.283Z,100049.16
2023-03-28T08:50:19.609Z,100042.28
2023-03-28T08:52:54.908Z,100025.69
2023-03-28T08:55:42.840Z,100037.75
2023-03-28T08:58:19.759Z,100022.69
2023-03-28T09:00:47.085Z,100030.34
2023-03-28T09:03:17.129Z,100023.41
2023-03-28T09:05:51.631Z,100023.78
2023-03-28T09:08:44.816Z,100038.97
2023-03-28T09:11:34.921Z,100028.72
2023-03-28T09:14:13.864Z,100030.63
2023-03-28T09:17:12.614Z,100038.53
2023-03-28T09:19:51.789Z,100041.34
2023-03-28T09:22:42.369Z,100034.47
2023-03-28T09:25:35.602Z,100032.25
2023-03-28T09:28:24.038Z,100046.91
2023-03-28T09:30:53.789Z,100062.44
2023-03-28T09:33:48.774Z,100052.00
2023-03-28T09:36:22.909Z,100048.28
2023-03-28T09:39:24.190Z,100053.34
2023-03-28T09:42:23.983Z,100049.66
2023-03-28T09:45:04.736Z,100051.91
2023-03-28T09:47:32.932Z,100055.50
2023-03-28T09:50:11.773Z,100058.81
2023-03-28T09:52:39.184Z,100054.59
2023-03-28T09:55:15.277Z,100045.94
2023-03-28T09:58:01.669Z,100057.66
2023-03-28T10:00:29.674Z,100051.00
2023-03-28T10:02:59.240Z,100049.16
2023-03-28T10:05:40.861Z,100047.25
2023-03-28T10:08:25.509Z,100046.59
2023-03-28T10:11:12.366Z,100058.09
2023-03-28T10:13:45.625Z,100051.81
2023-03-28T10:16:16.140Z,100061.34
2023-03-28T10:18:43.638Z,100057.59
2023-03-28T10:21:18.800Z,100049.72
2023-03-28T10:23:56.327Z,100044.09
2023-03-28T10:26:26.668Z,100035.56
2023-03-28T10:28:58.018Z,100055.97
2023-03-28T10:31:29.875Z,100038.97
2023-03-28T10:33:59.087Z,100046.66
2023-03-28T10:36:34.341Z,100043.00
2023-03-28T10:39:21.352Z,100039.16
2023-03-28T10:41:59.351Z,100045.09
2023-03-28T10:44:28.313Z,100050.28
2023-03-28T10:46:59.228Z,100045.62
2023-03-28T10:49:27.709Z,100048.56
2023-03-28T10:51:54.958Z,100039.19
2023-03-28T10:54:35.055Z,100049.53
2023-03-28T10:57:04.829Z,100042.09
2023-03-28T10:59:41.593Z,100047.22
2023-03-28T11:02:29.492Z,100036.87
2023-03-28T11:05:31.861Z,100049.25
2023-03-28T11:08:39.207Z,100035.47
2023-03-28T11:11:24.518Z,100041.53
2023-03-28T11:13:59.968Z,100036.91
2023-03-28T11:16:54.288Z,100038.47
2023-03-28T11:20:02.092Z,100032.56
2023-03-28T11:23:06.828Z,100042.72
2023-03-28T11:26:19.686Z,100029.88
2023-03-28T11:29:01.605Z,100025.41
2023-03-28T11:31:40.548Z,100033.31
2023-03-28T11:34:34.402Z,100040.03
2023-03-28T11:37:11.064Z,100031.22
2023-03-28T11:39:42.807Z,100037.00
2023-03-28T11:42:18.329Z,100026.94
2023-03-28T11:45:05.309Z,100050.06
2023-03-28T11:47:41.302Z,100049.38
2023-03-28T11:50:31.354Z,100048.28
2023-03-28T11:53:07.680Z,100046.06
2023-03-28T11:55:44.845Z,100034.66
2023-03-28T11:58:19.463Z,100052.47
2023-03-28T12:01:05.476Z,100034.16
2023-03-28T12:03:46.268Z,100052.72
2023-03-28T12:06:31.658Z,100047.59
2023-03-28T12:09:26.354Z,100024.00
2023-03-28T12:12:18.100Z,100026.81
2023-03-28T12:15:10.744Z,100037.69
2023-03-28T12:17:43.543Z,100068.81
2023-03-28T12:22:54.067Z,100057.81
2023-03-28T12:25:58.856Z,100055.13
2023-03-28T12:28:49.697Z,100055.97
2023-03-28T12:32:06.979Z,100062.19
2023-03-28T12:35:07.386Z,100062.56
2023-03-28T12:38:04.461Z,100064.16
2023-03-28T12:40:59.785Z,100066.28
2023-03-28T12:43:51.931Z,100059.41
2023-03-28T12:46:24.643Z,100062.88
2023-03-28T12:49:30.041Z,100076.78
2023-03-28T12:52:01.679Z,100081.69
2023-03-28T12:54:36.463Z,100071.97
2023-03-28T12:57:21.011Z,100084.87
2023-03-28T13:00:03.339Z,100077.66
2023-03-28T13:02:45.324Z,100084.50
2023-03-28T13:05:13.476Z,100097.41
2023-03-28T13:08:04.430Z,100079.84
2023-03-28T13:10:59.207Z,100074.22
2023-03-28T13:13:30.873Z,100082.84
2023-03-28T13:16:00.508Z,100080.78
2023-03-28T13:18:31.545Z,100080.87
2023-03-28T13:21:00.148Z,100087.53
2023-03-28T13:23:46.123Z,100090.19
2023-03-28T13:26:13.578Z,100089.09
2023-03-28T13:28:59.816Z,100097.19
2023-03-28T13:31:26.939Z,100115.50
2023-03-28T13:34:02.658Z,100113.56
2023-03-28T13:36:32.564Z,100146.03
2023-03-28T13:39:11.257Z,100137.53
2023-03-28T13:41:40.791Z,100160.75
2023-03-28T13:44:16.797Z,100154.12
2023-03-28T13:46:47.165Z,100175.94
2023-03-28T13:49:17.597Z,100171.91
2023-03-28T13:51:52.322Z,100179.28
2023-03-28T13:54:19.571Z,100187.16
2023-03-28T13:56:48.821Z,100188.81
2023-03-28T13:59:18.928Z,100207.19
2023-03-28T14:01:55.906Z,100193.31
2023-03-28T14:04:28.196Z,100185.78
2023-03-28T14:06:56.279Z,100196.72
2023-03-28T14:09:28.830Z,100202.09
2023-03-28T14:12:03.104Z,100198.34
2023-03-28T14:14:34.011Z,100193.50
2023-03-28T14:17:03.739Z,100176.72
2023-03-28T14:19:41.517Z,100197.63
2023-03-28T14:22:14.788Z,100194.41
2023-03-28T14:24:43.173Z,100199.81
2023-03-28T14:27:14.472Z,100196.66
2023-03-28T14:29:54.767Z,100208.97
2023-03-28T14:32:25.941Z,100209.75
2023-03-28T14:34:53.804Z,100194.59
2023-03-28T14:37:22.540Z,100205.69
2023-03-28T14:39:49.764Z,100207.19
2023-03-28T14:42:19.298Z,100199.06
2023-03-28T14:44:52.041Z,100198.56
2023-03-28T14:47:33.332Z,100197.63
2023-03-28T14:50:01.490Z,100185.44
2023-03-28T14:52:31.637Z,100189.03
2023-03-28T14:54:58.946Z,100198.16
2023-03-28T14:57:26.603Z,100193.81
2023-03-28T14:59:57.046Z,100219.72
2023-03-28T15:02:40.943Z,100229.63
2023-03-28T15:05:15.917Z,100216.16
2023-03-28T15:07:42.908Z,100239.25
2023-03-28T15:10:20.165Z,100247.03
2023-03-28T15:13:08.981Z,100256.50
2023-03-28T15:15:38.217Z,100257.25
2023-03-28T15:18:14.468Z,100266.63
2023-03-28T15:20:45.569Z,100266.88
2023-03-28T15:23:17.202Z,100264.13
2023-03-28T15:25:44.755Z,100268.78
2023-03-28T15:28:17.346Z,100275.69
2023-03-28T15:30:46.523Z,100288.03
2023-03-28T15:33:20.196Z,100277.00
2023-03-28T15:35:47.308Z,100281.34
2023-03-28T15:38:23.205Z,100282.62
2023-03-28T15:40:51.472Z,100276.28
2023-03-28T15:43:27.256Z,100284.09
2023-03-28T15:46:01.639Z,100278.63
2023-03-28T15:48:34.714Z,100286.84
2023-03-28T15:51:05.806Z,100285.09
2023-03-28T15:53:33.024Z,100298.88
2023-03-28T15:56:11.095Z,100294.13
2023-03-28T15:58:43.838Z,100293.69
2023-03-28T16:01:34.088Z,100295.13
2023-03-28T16:04:22.538Z,100303.34
2023-03-28T16:06:52.989Z,100311.56
2023-03-28T16:09:21.082Z,100315.44
2023-03-28T16:11:54.256Z,100322.41
2023-03-28T16:14:21.353Z,100318.75
2023-03-28T16:16:53.342Z,100340.16
2023-03-28T16:19:30.805Z,100332.53
2023-03-28T16:21:59.758Z,100326.59
2023-03-28T16:24:27.828Z,100339.59
2023-03-28T16:26:54.618Z,100347.59
2023-03-28T16:29:21.389Z,100354.28
2023-03-28T16:31:48.009Z,100352.75
2023-03-28T16:34:14.753Z,100366.63
2023-03-28T16:36:41.462Z,100357.50
2023-03-28T16:39:08.428Z,100367.78
2023-03-28T16:41:35.749Z,100379.47
2023-03-28T16:44:02.385Z,100366.81
2023-03-28T16:46:29.171Z,100376.37
2023-03-28T16:48:55.977Z,100386.50
2023-03-28T16:51:22.530Z,100388.78
2023-03-28T16:53:49.279Z,100390.00
2023-03-28T16:56:17.465Z,100387.31
2023-03-28T16:58:44.683Z,100405.44
2023-03-28T17:01:19.514Z,100400.28
2023-03-28T17:03:46.982Z,100396.81
2023-03-28T17:06:14.878Z,100418.44
2023-03-28T17:08:41.415Z,100412.41
2023-03-28T17:11:11.126Z,100406.16
2023-03-28T17:13:41.251Z,100411.25
2023-03-28T17:16:09.578Z,100420.25
2023-03-28T17:18:36.742Z,100417.56
2023-03-28T17:21:05.096Z,100433.91
2023-03-28T17:23:33.003Z,100443.44
2023-03-28T17:26:00.040Z,100443.63
2023-03-28T17:28:27.616Z,100456.25
2023-03-28T17:30:54.646Z,100454.78
2023-03-28T17:33:22.459Z,100462.59
2023-03-28T17:35:49.969Z,100473.56
2023-03-28T17:38:16.615Z,100462.59
2023-03-28T17:40:49.662Z,100468.16
2023-03-28T17:43:16.182Z,100462.75
2023-03-28T17:45:42.824Z,100482.03
2023-03-28T17:48:10.467Z,100475.06
2023-03-28T17:50:37.215Z,100478.81
2023-03-28T17:53:04.386Z,100481.88
2023-03-28T17:55:31.477Z,100489.53
2023-03-28T17:57:58.069Z,100494.13
2023-03-28T18:00:24.787Z,100487.94
2023-03-28T18:02:51.867Z,100492.69
2023-03-28T18:05:18.697Z,100499.97
2023-03-28T18:07:45.850Z,100501.78
2023-03-28T18:10:12.626Z,100507.09
2023-03-28T18:12:39.275Z,100503.78
2023-03-28T18:15:06.615Z,100511.75
2023-03-28T18:17:33.346Z,100512.72
2023-03-28T18:20:00.157Z,100513.25
2023-03-28T18:22:27.604Z,100516.09
2023-03-28T18:24:57.224Z,100519.72
2023-03-28T18:27:24.234Z,100536.50
2023-03-28T18:29:51.171Z,100527.22
2023-03-28T18:32:17.822Z,100535.94
2023-03-28T18:34:45.398Z,100526.81
2023-03-28T18:37:12.498Z,100533.69
2023-03-28T18:39:41.739Z,100533.34
2023-03-28T18:42:09.036Z,100530.88
2023-03-28T18:44:37.163Z,100535.31
2023-03-28T18:47:04.181Z,100538.19
2023-03-28T18:49:34.632Z,100541.53
2023-03-28T18:52:04.452Z,100546.28
2023-03-28T18:54:32.425Z,100552.13
2023-03-28T18:57:01.964Z,100546.34
2023-03-28T18:59:30.090Z,100541.66
2023-03-28T19:01:58.532Z,100543.53
2023-03-28T19:04:26.476Z,100548.38
2023-03-28T19:06:53.550Z,100544.38
2023-03-28T19:09:21.185Z,100556.31
2023-03-28T19:11:51.026Z,100554.16
2023-03-28T19:14:17.785Z,100556.75
2023-03-28T19:16:44.433Z,100553.34
2023-03-28T19:19:11.172Z,100547.81
2023-03-28T19:21:37.904Z,100553.59
2023-03-28T19:24:04.858Z,100556.88
2023-03-28T19:26:31.434Z,100558.38
2023-03-28T19:29:00.828Z,100551.63
2023-03-28T19:31:27.498Z,100554.03
2023-03-28T19:33:54.055Z,100563.81
2023-03-28T19:36:21.086Z,100558.66
2023-03-28T19:38:47.981Z,100558.13
2023-03-28T19:41:20.123Z,100552.78
2023-03-28T19:43:48.661Z,100555.19
2023-03-28T19:46:23.025Z,100552.31
2023-03-28T19:48:52.784Z,100555.16
2023-03-28T19:51:19.341Z,100555.97
2023-03-28T19:53:45.944Z,100546.22
2023-03-28T19:56:14.036Z,100544.00
2023-03-28T19:58:40.884Z,100543.56
2023-03-28T20:01:07.544Z,100542.91
2023-03-28T20:03:34.230Z,100544.88
2023-03-28T20:06:11.240Z,100541.38
2023-03-28T20:08:44.493Z,100545.41
2023-03-28T20:11:13.206Z,100552.66
2023-03-28T20:13:42.410Z,100553.34
2023-03-28T20:16:11.483Z,100546.09
2023-03-28T20:18:38.769Z,100547.16
2023-03-28T20:21:29.321Z,100550.38
2023-03-28T20:24:26.803Z,100552.41
2023-03-28T20:26:53.328Z,100546.88
2023-03-28T20:31:55.344Z,100532.44
2023-03-28T20:34:21.989Z,100536.59
2023-03-28T20:36:49.768Z,100548.78
2023-03-28T20:42:19.553Z,100551.12
2023-03-28T20:44:46.385Z,100541.66
2023-03-28T20:47:15.099Z,100551.03
2023-03-28T20:49:46.010Z,100552.13
2023-03-28T20:52:12.785Z,100553.16
2023-03-28T20:54:58.533Z,100563.25
2023-03-28T21:00:33.752Z,100556.25
2023-03-28T21:03:00.555Z,100569.06
2023-03-28T21:05:27.554Z,100566.09
2023-03-28T21:07:55.584Z,100574.28
2023-03-28T21:10:22.180Z,100575.31
2023-03-28T21:12:50.366Z,100567.13
2023-03-28T21:15:22.171Z,100584.72
2023-03-28T21:17:53.390Z,100573.31
2023-03-28T21:20:20.109Z,100570.22
2023-03-28T21:22:46.754Z,100563.75
2023-03-28T21:25:20.928Z,100570.66
2023-03-28T21:30:40.331Z,100571.25
2023-03-28T21:33:07.111Z,100581.47
2023-03-28T21:35:34.757Z,100575.97
2023-03-28T21:38:01.701Z,100574.34
2023-03-28T21:40:28.604Z,100581.00
2023-03-28T21:42:55.409Z,100584.34
2023-03-28T21:45:22.008Z,100586.16
2023-03-28T21:47:50.868Z,100593.19
2023-03-28T21:50:18.134Z,100582.97
2023-03-28T21:52:45.194Z,100591.19
2023-03-28T21:55:11.749Z,100597.78
2023-03-28T21:57:38.342Z,100590.44
2023-03-28T22:00:24.090Z,100592.47
2023-03-28T22:20:22.813Z,100624.69
2023-03-28T22:22:49.362Z,100621.88
2023-03-28T22:25:16.555Z,100625.12
2023-03-28T22:27:43.183Z,100631.34
2023-03-28T22:30:14.568Z,100636.47
2023-03-28T22:32:41.688Z,100643.22
2023-03-28T22:35:08.686Z,100634.06
2023-03-28T22:37:40.781Z,100634.34
2023-03-28T22:40:08.720Z,100634.31
2023-03-28T22:42:35.293Z,100632.53
2023-03-28T22:45:02.067Z,100634.75
2023-03-28T22:47:30.309Z,100629.59
2023-03-28T22:49:59.726Z,100636.09
2023-03-28T22:52:26.261Z,100643.78
2023-03-28T22:54:53.090Z,100647.94
2023-03-28T22:57:19.676Z,100646.59
2023-03-28T22:59:46.711Z,100645.22
2023-03-28T23:02:31.926Z,100641.34
2023-03-28T23:04:58.678Z,100641.44
2023-03-28T23:07:25.210Z,100646.34
2023-03-28T23:10:05.998Z,100644.56
2023-03-28T23:13:01.823Z,100644.59
2023-03-28T23:15:28.610Z,100644.13
2023-03-28T23:17:55.960Z,100661.28
2023-03-28T23:20:22.762Z,100663.78
2023-03-28T23:22:49.337Z,100665.75
2023-03-28T23:25:18.741Z,100667.97
2023-03-28T23:28:03.877Z,100678.97
2023-03-28T23:30:30.415Z,100679.34
2023-03-28T23:32:57.007Z,100674.50
2023-03-28T23:35:23.556Z,100678.59
2023-03-28T23:38:02.555Z,100681.91
2023-03-28T23:41:00.635Z,100682.09
2023-03-28T23:43:39.728Z,100683.19
2023-03-28T23:46:07.219Z,100681.00
2023-03-28T23:48:33.886Z,100682.84
2023-03-28T23:51:01.946Z,100684.87
2023-03-28T23:53:29.452Z,100682.53
2023-03-28T23:55:56.031Z,100681.94
2023-03-28T23:58:29.594Z,100683.66
